Fulton, Iowa
Current Conditions -  °F | °C
As of 8:21 PM on Friday 24 Oct 2014 (Local Time) from KDBQ Reporting Station
Broken Clouds Broken Clouds  
Wind Chill: 57°   Ceiling: 3200
Heat Index: 57°   Visibility: 10mi
Dew Point: 54°   Wind: 8mph
Humidity: 89%   Direction: 210°SSW
Pressure: 29.93"   Gusts: NA
Location:  42.12°N, 90.7234°W
Report Text: KDBQ 250121Z AUTO 21007KT 10SM FEW016 FEW021 BKN032 14/12 A2993 RMK AO2 T01390122
Loading
Personal Weather Stations






























Interactive Weather Map
Tropical Storm Tracking
New forecast layout! Learn more

10-Day Weather Forecast

Advertisements
Track Severe Weather on mobile